Time;durP1;ratioP1;P1;durP2;ratioP2;P2;SDS_P1;SDS_P2;PMS_P1;PMS_P2;Temp;Humidity;BMP_temperature;BMP_pressure;BME280_temperature;BME280_humidity;BME280_pressure;Samples;Min_cycle;Max_cycle;Signal;HPM_P1;HPM_P2
2023/05/08 00:01:07;;;;;;;5.17;4.67;;;10.60;1.00;;;;;;5036166;28;20215;-48
2023/05/08 00:03:32;;;;;;;6.10;4.13;;;10.50;1.00;;;;;;5037298;28;20270;-48
2023/05/08 00:05:58;;;;;;;4.57;4.23;;;10.50;1.00;;;;;;5034883;28;20446;-47
2023/05/08 00:08:24;;;;;;;6.53;5.17;;;10.50;1.00;;;;;;5037702;28;20246;-48
2023/05/08 00:10:49;;;;;;;6.20;5.27;;;10.30;1.00;;;;;;5036871;28;20208;-48
2023/05/08 00:13:15;;;;;;;5.37;4.87;;;10.30;1.00;;;;;;5034521;28;20268;-48
2023/05/08 00:15:41;;;;;;;5.90;5.03;;;10.30;1.00;;;;;;5034910;28;20213;-48
2023/05/08 00:18:06;;;;;;;6.00;5.40;;;10.30;1.00;;;;;;5038642;28;20187;-48
2023/05/08 00:20:33;;;;;;;6.03;5.40;;;10.30;1.00;;;;;;5036000;28;20599;-48
2023/05/08 00:22:58;;;;;;;5.37;4.80;;;10.30;1.00;;;;;;5037210;28;20197;-48
2023/05/08 00:25:25;;;;;;;5.17;4.67;;;10.30;1.00;;;;;;5034781;28;20533;-48
2023/05/08 00:27:51;;;;;;;5.40;4.90;;;10.30;1.00;;;;;;5034983;28;20184;-48
2023/05/08 00:30:16;;;;;;;5.03;4.53;;;10.30;1.00;;;;;;5032856;28;21942;-48
2023/05/08 00:32:42;;;;;;;7.80;5.27;;;10.20;1.00;;;;;;5032382;28;20188;-48
2023/05/08 00:35:08;;;;;;;5.60;5.00;;;10.10;1.00;;;;;;5032113;28;20183;-48
2023/05/08 00:37:34;;;;;;;7.03;5.17;;;10.00;1.00;;;;;;5032948;28;20188;-48
2023/05/08 00:39:59;;;;;;;5.77;5.27;;;10.00;1.00;;;;;;5035666;28;20665;-48
2023/05/08 00:42:25;;;;;;;6.20;5.07;;;10.00;1.00;;;;;;5032413;28;21011;-48
2023/05/08 00:44:51;;;;;;;6.27;5.47;;;10.00;1.00;;;;;;5035011;28;20666;-48
2023/05/08 00:47:16;;;;;;;5.83;5.17;;;10.00;1.00;;;;;;5041725;28;20188;-48
2023/05/08 00:49:42;;;;;;;6.00;5.40;;;10.00;1.00;;;;;;5034918;28;20551;-48
2023/05/08 00:52:09;;;;;;;6.17;5.57;;;9.90;1.00;;;;;;5034119;28;20222;-48
2023/05/08 00:54:35;;;;;;;5.77;5.27;;;9.90;1.00;;;;;;5036737;28;20419;-48
2023/05/08 00:57:04;;;;;;;5.70;5.20;;;9.90;1.00;;;;;;5045611;28;20451;-48
2023/05/08 00:59:31;;;;;;;5.73;5.23;;;9.80;1.00;;;;;;5034774;28;20437;-48
2023/05/08 01:01:57;;;;;;;6.00;5.40;;;9.80;1.00;;;;;;5034154;28;20450;-48
2023/05/08 01:04:25;;;;;;;5.50;5.00;;;9.90;1.00;;;;;;5034578;28;20442;-48
2023/05/08 01:06:51;;;;;;;5.13;4.73;;;9.90;1.00;;;;;;5032881;28;20198;-48
2023/05/08 01:09:16;;;;;;;5.60;4.70;;;9.80;1.00;;;;;;5035204;28;20780;-47
2023/05/08 01:12:14;;;;;;;6.90;5.43;;;9.90;1.00;;;;;;5034880;28;20207;-48
2023/05/08 01:15:04;;;;;;;5.03;4.63;;;9.90;1.00;;;;;;5018486;28;20195;-50
2023/05/08 01:17:44;;;;;;;6.00;5.50;;;9.80;1.00;;;;;;5030367;28;20434;-48
2023/05/08 01:20:16;;;;;;;5.30;4.80;;;9.80;1.00;;;;;;5035416;28;20430;-48
2023/05/08 01:23:15;;;;;;;5.70;5.20;;;9.80;1.00;;;;;;5034639;28;20453;-48
2023/05/08 01:25:44;;;;;;;5.50;4.90;;;9.70;1.00;;;;;;5037975;28;20507;-47
2023/05/08 01:28:39;;;;;;;7.10;5.17;;;9.70;1.00;;;;;;5033092;28;20456;-48
2023/05/08 01:31:43;;;;;;;6.63;5.40;;;9.60;1.00;;;;;;5034538;28;20478;-47
2023/05/08 01:34:21;;;;;;;5.30;4.77;;;9.60;1.00;;;;;;5032883;28;20507;-48
2023/05/08 01:37:00;;;;;;;6.10;5.50;;;9.60;1.00;;;;;;5051913;28;20448;-48
2023/05/08 01:39:41;;;;;;;7.73;5.30;;;9.60;1.00;;;;;;5015379;28;20439;-48
2023/05/08 01:42:18;;;;;;;5.20;4.70;;;9.60;1.00;;;;;;5028714;28;20442;-48
2023/05/08 01:44:50;;;;;;;5.20;4.70;;;9.60;1.00;;;;;;5036665;28;20406;-48
2023/05/08 01:47:19;;;;;;;7.27;5.00;;;9.50;1.00;;;;;;5042318;28;20464;-48
2023/05/08 01:49:49;;;;;;;6.80;5.17;;;9.50;1.00;;;;;;5030982;28;20467;-48
2023/05/08 01:52:28;;;;;;;6.30;5.70;;;9.40;1.00;;;;;;5028553;28;20474;-48
2023/05/08 01:55:02;;;;;;;10.33;5.37;;;9.40;1.00;;;;;;5033756;28;20446;-48
2023/05/08 01:57:29;;;;;;;5.50;5.00;;;9.30;1.00;;;;;;5032501;28;20962;-48
2023/05/08 01:59:58;;;;;;;5.30;4.80;;;9.30;1.00;;;;;;5033332;28;20449;-48
2023/05/08 02:02:27;;;;;;;5.90;4.87;;;9.30;1.00;;;;;;5033036;28;20538;-48
2023/05/08 02:04:53;;;;;;;5.30;4.80;;;9.30;1.00;;;;;;5035315;28;20452;-48
2023/05/08 02:07:22;;;;;;;7.10;5.37;;;9.30;1.00;;;;;;5048750;28;20446;-48
2023/05/08 02:09:50;;;;;;;6.13;5.53;;;9.30;1.00;;;;;;5030877;28;20449;-48
2023/05/08 02:12:16;;;;;;;6.83;4.70;;;9.20;1.00;;;;;;5033315;28;20567;-48
2023/05/08 02:14:45;;;;;;;5.60;5.10;;;9.20;1.00;;;;;;5034093;28;20438;-48
2023/05/08 02:17:13;;;;;;;5.93;5.33;;;9.10;1.00;;;;;;5034940;28;20462;-48
2023/05/08 02:19:41;;;;;;;6.63;5.60;;;9.00;1.00;;;;;;5030695;28;20440;-48
2023/05/08 02:22:08;;;;;;;5.93;5.33;;;9.00;1.00;;;;;;5033043;28;20442;-48
2023/05/08 02:24:34;;;;;;;6.10;5.30;;;8.90;1.00;;;;;;5027282;28;20454;-49
2023/05/08 02:27:00;;;;;;;5.73;5.23;;;8.90;1.00;;;;;;5036198;28;20461;-48
2023/05/08 02:29:28;;;;;;;5.80;5.20;;;9.00;1.00;;;;;;5033525;28;20506;-48
2023/05/08 02:31:55;;;;;;;7.33;5.93;;;9.00;1.00;;;;;;5033507;28;20478;-48
2023/05/08 02:34:22;;;;;;;8.37;6.07;;;8.90;1.00;;;;;;5032279;28;20463;-48
2023/05/08 02:36:50;;;;;;;5.77;5.27;;;8.80;1.00;;;;;;5036462;28;20879;-48
2023/05/08 02:39:18;;;;;;;6.37;5.77;;;8.80;1.00;;;;;;5030742;28;20458;-48
2023/05/08 02:41:45;;;;;;;6.20;5.60;;;8.80;1.00;;;;;;5032824;28;20442;-48
2023/05/08 02:44:11;;;;;;;6.40;5.80;;;8.70;1.00;;;;;;5031489;28;20477;-48
2023/05/08 02:46:57;;;;;;;6.30;5.70;;;8.70;1.00;;;;;;5037332;28;20442;-48
2023/05/08 02:49:59;;;;;;;7.20;6.13;;;8.70;1.00;;;;;;5032642;28;20482;-48
2023/05/08 02:52:29;;;;;;;7.00;6.30;;;8.60;1.00;;;;;;5023187;28;20488;-48
2023/05/08 02:55:03;;;;;;;6.60;6.00;;;8.70;1.00;;;;;;5033252;28;20445;-48
2023/05/08 02:58:07;;;;;;;7.33;6.30;;;8.60;1.00;;;;;;5031679;28;20470;-48
2023/05/08 03:00:59;;;;;;;6.73;6.13;;;8.60;1.00;;;;;;5018186;28;20811;-47
2023/05/08 03:03:53;;;;;;;7.10;6.40;;;8.50;1.00;;;;;;5032173;28;20535;-47
2023/05/08 03:06:23;;;;;;;6.03;5.53;;;8.60;1.00;;;;;;5024585;28;20465;-48
2023/05/08 03:08:50;;;;;;;6.40;5.80;;;8.60;1.00;;;;;;5030280;28;20611;-48
2023/05/08 03:11:21;;;;;;;7.37;6.33;;;8.60;1.00;;;;;;5026874;28;20465;-47
2023/05/08 03:13:50;;;;;;;6.40;5.80;;;8.50;1.00;;;;;;5032343;28;20450;-48
2023/05/08 03:16:20;;;;;;;6.90;6.27;;;8.40;1.00;;;;;;5036144;28;20450;-48
2023/05/08 03:18:53;;;;;;;6.73;6.10;;;8.40;1.00;;;;;;5031594;28;20438;-47
2023/05/08 03:21:21;;;;;;;7.17;6.10;;;8.40;1.00;;;;;;5031595;28;20933;-48
2023/05/08 03:23:50;;;;;;;6.90;6.20;;;8.40;1.00;;;;;;5031897;28;20776;-47
2023/05/08 03:26:20;;;;;;;7.73;5.70;;;8.40;1.00;;;;;;5032423;28;20472;-47
2023/05/08 03:28:50;;;;;;;7.47;6.70;;;8.30;1.00;;;;;;5027309;28;20856;-47
2023/05/08 03:31:20;;;;;;;8.40;6.67;;;8.30;1.00;;;;;;5027010;28;20470;-47
2023/05/08 03:33:47;;;;;;;7.60;6.03;;;8.30;1.00;;;;;;5030344;28;20442;-50
2023/05/08 03:36:14;;;;;;;7.77;6.70;;;8.30;1.00;;;;;;5030178;28;20434;-47
2023/05/08 03:38:41;;;;;;;7.17;6.50;;;8.20;1.00;;;;;;5031718;28;20496;-47
2023/05/08 03:41:06;;;;;;;7.17;6.47;;;8.10;1.00;;;;;;5031847;28;20438;-47
2023/05/08 03:43:35;;;;;;;7.90;6.57;;;8.20;1.00;;;;;;5029437;28;20471;-48
2023/05/08 03:46:01;;;;;;;7.27;6.57;;;8.20;1.00;;;;;;5031835;28;20194;-49
2023/05/08 03:48:29;;;;;;;7.40;6.60;;;8.20;1.00;;;;;;5031573;28;20934;-48
2023/05/08 03:50:56;;;;;;;8.20;7.20;;;8.10;1.00;;;;;;5030129;28;20536;-48
2023/05/08 03:53:22;;;;;;;7.37;6.60;;;8.10;1.00;;;;;;5031150;28;20508;-48
2023/05/08 03:55:47;;;;;;;8.23;7.23;;;8.10;1.00;;;;;;5032536;28;20442;-48
2023/05/08 03:58:31;;;;;;;7.83;7.03;;;8.10;1.00;;;;;;5033629;28;20188;-48
2023/05/08 04:01:30;;;;;;;9.07;7.27;;;8.00;1.00;;;;;;5028442;28;20263;-48
2023/05/08 04:04:06;;;;;;;10.40;7.43;;;8.10;1.00;;;;;;5030848;28;20438;-48
2023/05/08 04:06:37;;;;;;;8.23;7.43;;;8.00;1.00;;;;;;5031122;28;20809;-48
2023/05/08 04:09:18;;;;;;;8.93;8.00;;;8.00;1.00;;;;;;5031046;28;20801;-48
2023/05/08 04:11:59;;;;;;;7.87;7.10;;;8.00;1.00;;;;;;5030998;28;20513;-49
2023/05/08 04:14:29;;;;;;;10.00;7.97;;;8.00;1.00;;;;;;5015619;28;20538;-48
2023/05/08 04:17:02;;;;;;;7.30;6.60;;;8.10;1.00;;;;;;5035062;28;20492;-49
2023/05/08 04:19:32;;;;;;;8.73;7.70;;;8.10;1.00;;;;;;5033672;28;20777;-48
2023/05/08 04:22:04;;;;;;;9.90;7.53;;;8.10;1.00;;;;;;5033256;28;21083;-48
2023/05/08 04:24:36;;;;;;;7.47;6.77;;;8.10;1.00;;;;;;5031892;28;20477;-50
2023/05/08 04:27:02;;;;;;;7.93;6.97;;;8.20;1.00;;;;;;5035252;28;20450;-48
2023/05/08 04:29:29;;;;;;;8.43;7.20;;;8.10;1.00;;;;;;5033150;28;20534;-48
2023/05/08 04:31:55;;;;;;;10.97;7.43;;;8.10;1.00;;;;;;5034493;28;20992;-48
2023/05/08 04:34:22;;;;;;;7.03;6.33;;;8.20;1.00;;;;;;5032799;28;20437;-47
2023/05/08 04:36:47;;;;;;;7.33;6.63;;;8.20;1.00;;;;;;5034460;28;20458;-48
2023/05/08 04:39:13;;;;;;;8.50;7.13;;;8.30;1.00;;;;;;5035641;28;20819;-48
2023/05/08 04:41:39;;;;;;;12.33;7.20;;;8.40;1.00;;;;;;5034457;28;20258;-47
2023/05/08 04:44:05;;;;;;;10.70;7.00;;;8.40;1.00;;;;;;5033928;28;20278;-48
2023/05/08 04:46:30;;;;;;;8.23;7.40;;;8.40;1.00;;;;;;5035076;28;20187;-48
2023/05/08 04:48:56;;;;;;;7.93;6.77;;;8.50;1.00;;;;;;5034224;28;20229;-48
2023/05/08 04:51:21;;;;;;;8.27;7.47;;;8.50;1.00;;;;;;5033587;28;20215;-49
2023/05/08 04:53:47;;;;;;;7.80;7.00;;;8.60;1.00;;;;;;5032226;28;20198;-48
2023/05/08 04:56:12;;;;;;;7.93;7.07;;;8.60;1.00;;;;;;5033266;28;20192;-48
2023/05/08 04:58:38;;;;;;;9.00;7.00;;;8.70;1.00;;;;;;5033836;28;20240;-48
2023/05/08 05:01:04;;;;;;;8.80;7.27;;;8.80;1.00;;;;;;5035571;28;20547;-48
2023/05/08 05:03:30;;;;;;;8.73;7.07;;;8.90;1.00;;;;;;5033843;28;20330;-48
2023/05/08 05:06:00;;;;;;;7.77;6.70;;;9.00;1.00;;;;;;5033500;28;20550;-48
2023/05/08 05:08:25;;;;;;;7.77;6.40;;;9.00;1.00;;;;;;5035009;28;20278;-48
2023/05/08 05:10:51;;;;;;;7.80;7.00;;;9.10;1.00;;;;;;5033666;28;21096;-48
2023/05/08 05:13:18;;;;;;;9.60;7.00;;;9.20;1.00;;;;;;5033867;28;20573;-48
2023/05/08 05:15:44;;;;;;;7.50;6.80;;;9.20;1.00;;;;;;5034373;28;20449;-48
2023/05/08 05:18:10;;;;;;;8.27;7.40;;;9.20;1.00;;;;;;5033300;28;20446;-48
2023/05/08 05:20:36;;;;;;;9.43;7.07;;;9.30;1.00;;;;;;5035242;28;20414;-48
2023/05/08 05:23:02;;;;;;;9.27;7.73;;;9.30;1.00;;;;;;5036168;28;20552;-48
2023/05/08 05:25:27;;;;;;;8.00;7.20;;;9.40;1.00;;;;;;5034012;28;20797;-49
2023/05/08 05:27:53;;;;;;;9.43;7.10;;;9.50;1.00;;;;;;5033000;28;20442;-48
2023/05/08 05:30:19;;;;;;;10.77;6.83;;;9.60;1.00;;;;;;5033180;28;20190;-48
2023/05/08 05:32:44;;;;;;;11.60;7.67;;;9.60;1.00;;;;;;5033265;28;20218;-48
2023/05/08 05:35:10;;;;;;;9.03;7.90;;;9.80;1.00;;;;;;5034948;28;20195;-49
2023/05/08 05:37:36;;;;;;;10.00;7.40;;;10.00;1.00;;;;;;5031965;28;20219;-48
2023/05/08 05:40:02;;;;;;;10.37;7.57;;;10.20;1.00;;;;;;5034100;28;20186;-48
2023/05/08 05:42:27;;;;;;;10.13;7.87;;;10.40;1.00;;;;;;5030644;28;20691;-48
2023/05/08 05:44:55;;;;;;;11.20;8.07;;;10.60;1.00;;;;;;5033310;28;20530;-48
2023/05/08 05:47:21;;;;;;;8.13;7.30;;;10.70;1.00;;;;;;5032939;28;20233;-48
2023/05/08 05:49:46;;;;;;;13.23;7.00;;;10.70;1.00;;;;;;5027033;28;20513;-48
2023/05/08 05:52:13;;;;;;;8.93;7.70;;;10.90;1.00;;;;;;5025841;28;20216;-49
2023/05/08 05:54:40;;;;;;;9.30;7.80;;;11.00;1.00;;;;;;5032890;28;20179;-49
2023/05/08 05:57:06;;;;;;;8.40;6.93;;;11.30;1.00;;;;;;5026714;28;20474;-49
2023/05/08 05:59:32;;;;;;;17.33;7.47;;;11.40;1.00;;;;;;5033641;28;20449;-49
2023/05/08 06:01:57;;;;;;;8.60;7.20;;;11.50;1.00;;;;;;5030276;28;20445;-50
2023/05/08 06:04:23;;;;;;;7.93;6.77;;;11.50;1.00;;;;;;5034107;28;20208;-49
2023/05/08 06:06:49;;;;;;;7.90;7.10;;;11.50;1.00;;;;;;5033730;28;20648;-49
2023/05/08 06:09:14;;;;;;;7.60;6.90;;;11.70;1.00;;;;;;5031921;28;20639;-49
2023/05/08 06:11:40;;;;;;;9.80;7.33;;;11.80;1.00;;;;;;5031139;28;20218;-49
2023/05/08 06:14:06;;;;;;;8.60;7.40;;;11.90;1.00;;;;;;5033014;28;20236;-48
2023/05/08 06:16:32;;;;;;;7.60;6.90;;;12.00;1.00;;;;;;5036504;28;20442;-49
2023/05/08 06:18:57;;;;;;;11.00;7.40;;;12.00;1.00;;;;;;5030345;28;20194;-49
2023/05/08 06:21:23;;;;;;;9.40;7.30;;;12.10;1.00;;;;;;5030623;28;20194;-49
2023/05/08 06:23:49;;;;;;;11.27;7.07;;;12.10;1.00;;;;;;5032410;28;20183;-49
2023/05/08 06:26:14;;;;;;;8.33;7.27;;;12.20;1.00;;;;;;5030787;28;20590;-49
2023/05/08 06:28:40;;;;;;;10.03;7.37;;;12.30;1.00;;;;;;5033367;28;20224;-49
2023/05/08 06:31:05;;;;;;;10.20;7.80;;;12.40;1.00;;;;;;5046722;28;20211;-49
2023/05/08 06:33:31;;;;;;;12.37;7.20;;;12.60;1.00;;;;;;5038925;28;20234;-49
2023/05/08 06:35:56;;;;;;;10.33;7.97;;;12.70;1.00;;;;;;5030097;28;20192;-49
2023/05/08 06:38:22;;;;;;;10.87;7.87;;;13.00;1.00;;;;;;5029754;28;20292;-49
2023/05/08 06:40:49;;;;;;;8.03;7.23;;;13.20;1.00;;;;;;5028732;28;20200;-49
2023/05/08 06:43:15;;;;;;;8.70;7.80;;;13.50;1.00;;;;;;5030160;28;20196;-49
2023/05/08 06:45:42;;;;;;;8.70;7.90;;;13.70;1.00;;;;;;5029796;28;20457;-49
2023/05/08 06:48:08;;;;;;;11.67;7.77;;;13.90;1.00;;;;;;5038782;28;20190;-49
2023/05/08 06:50:36;;;;;;;11.70;8.37;;;14.40;1.00;;;;;;5030552;28;20561;-49
2023/05/08 06:53:01;;;;;;;14.77;8.23;;;14.60;1.00;;;;;;5031026;28;20206;-49
2023/05/08 06:55:27;;;;;;;11.83;8.33;;;14.60;1.00;;;;;;5033140;28;20433;-48
2023/05/08 06:57:52;;;;;;;14.10;7.93;;;14.70;1.00;;;;;;5038143;28;20187;-49
2023/05/08 07:00:18;;;;;;;8.60;7.63;;;14.80;1.00;;;;;;5032977;28;20271;-49
2023/05/08 07:02:44;;;;;;;8.73;7.70;;;14.70;1.00;;;;;;5037043;28;20229;-48
2023/05/08 07:05:09;;;;;;;10.70;8.60;;;14.70;1.00;;;;;;5032616;28;20246;-48
2023/05/08 07:07:35;;;;;;;8.03;7.20;;;14.70;1.00;;;;;;5031791;28;20179;-49
2023/05/08 07:10:00;;;;;;;8.40;7.60;;;14.90;1.00;;;;;;5032918;28;20679;-49
2023/05/08 07:12:26;;;;;;;8.90;7.60;;;14.90;1.00;;;;;;5036077;28;20263;-49
2023/05/08 07:14:52;;;;;;;11.17;8.10;;;14.90;1.00;;;;;;5033741;28;20180;-48
2023/05/08 07:17:17;;;;;;;9.20;8.03;;;15.10;1.00;;;;;;5033460;28;20188;-49
2023/05/08 07:19:43;;;;;;;10.60;8.33;;;14.90;1.00;;;;;;5034850;28;20190;-48
2023/05/08 07:22:09;;;;;;;10.13;8.60;;;14.80;1.00;;;;;;5044403;28;20191;-49
2023/05/08 07:24:35;;;;;;;9.20;8.20;;;14.70;1.00;;;;;;5034450;28;20184;-49
2023/05/08 07:27:01;;;;;;;11.63;9.37;;;14.60;1.00;;;;;;5032171;28;20958;-49
2023/05/08 07:29:26;;;;;;;9.37;8.20;;;14.80;1.00;;;;;;5033025;28;20200;-49
2023/05/08 07:31:52;;;;;;;8.67;7.83;;;15.20;1.00;;;;;;5031555;28;20211;-49
2023/05/08 07:34:17;;;;;;;10.10;9.00;;;16.00;1.00;;;;;;5034027;28;20539;-49
2023/05/08 07:36:44;;;;;;;10.27;8.30;;;16.50;1.00;;;;;;5043817;28;20656;-49
2023/05/08 07:39:09;;;;;;;9.70;8.70;;;16.80;1.00;;;;;;5036940;28;20264;-47
2023/05/08 07:41:36;;;;;;;12.60;8.77;;;16.90;1.00;;;;;;5031701;28;20472;-47
2023/05/08 07:44:02;;;;;;;10.27;8.30;;;16.80;1.00;;;;;;5032567;28;20580;-49
2023/05/08 07:46:27;;;;;;;10.03;9.03;;;16.80;1.00;;;;;;5032280;28;20436;-49
2023/05/08 07:48:53;;;;;;;11.43;8.20;;;16.80;1.00;;;;;;5032326;28;20436;-49
2023/05/08 07:51:19;;;;;;;10.47;9.50;;;16.80;1.00;;;;;;5034992;28;20230;-48
2023/05/08 07:53:44;;;;;;;12.37;9.40;;;17.10;1.00;;;;;;5036136;28;20742;-48
2023/05/08 07:56:10;;;;;;;10.40;9.30;;;17.10;1.00;;;;;;5033582;28;20233;-48
2023/05/08 07:58:35;;;;;;;11.37;8.87;;;17.20;1.00;;;;;;5034006;28;20399;-48
2023/05/08 08:01:02;;;;;;;9.37;8.47;;;17.70;1.00;;;;;;5036656;28;20626;-48
2023/05/08 08:03:27;;;;;;;12.70;8.70;;;18.20;1.00;;;;;;5037738;28;20217;-49
2023/05/08 08:05:54;;;;;;;9.50;8.60;;;18.50;1.00;;;;;;5030789;28;20488;-49
2023/05/08 08:08:20;;;;;;;8.73;7.93;;;18.40;1.00;;;;;;5033240;28;20190;-48
2023/05/08 08:10:45;;;;;;;9.23;8.30;;;18.30;1.00;;;;;;5035814;28;20477;-48
2023/05/08 08:13:11;;;;;;;14.03;9.50;;;18.40;1.00;;;;;;5034197;28;20551;-48
2023/05/08 08:15:37;;;;;;;9.13;8.13;;;18.60;1.00;;;;;;5037177;28;20194;-49
2023/05/08 08:18:02;;;;;;;9.50;8.50;;;18.90;1.00;;;;;;5032362;28;20190;-49
2023/05/08 08:20:28;;;;;;;9.63;8.73;;;19.30;1.00;;;;;;5035616;28;20627;-49
2023/05/08 08:22:53;;;;;;;9.90;8.83;;;19.30;1.00;;;;;;5033216;28;20218;-49
2023/05/08 08:25:19;;;;;;;10.00;8.63;;;19.20;1.00;;;;;;5034446;28;20551;-50
2023/05/08 08:27:45;;;;;;;11.57;10.10;;;19.10;1.00;;;;;;5034387;28;20208;-50
2023/05/08 08:30:11;;;;;;;10.70;9.60;;;18.90;1.00;;;;;;5036816;28;20186;-50
2023/05/08 08:32:36;;;;;;;10.10;9.10;;;18.90;1.00;;;;;;5036656;28;20209;-50
2023/05/08 08:35:02;;;;;;;14.67;9.83;;;19.00;1.00;;;;;;5035751;28;20190;-50
2023/05/08 08:37:28;;;;;;;10.10;9.10;;;18.50;1.00;;;;;;5034008;28;20662;-50
2023/05/08 08:39:53;;;;;;;11.63;10.43;;;17.90;1.00;;;;;;5035267;28;20189;-49
2023/05/08 08:42:19;;;;;;;12.53;10.33;;;17.10;1.00;;;;;;5034256;28;20197;-50
2023/05/08 08:44:44;;;;;;;11.43;9.27;;;16.70;1.00;;;;;;5036214;28;20653;-49
2023/05/08 08:47:13;;;;;;;11.30;9.87;;;16.90;1.00;;;;;;5034271;28;20646;-50
2023/05/08 08:49:49;;;;;;;14.33;9.63;;;17.40;1.00;;;;;;5033476;28;20238;-50
2023/05/08 08:52:44;;;;;;;9.50;8.38;;;18.10;1.00;;;;;;5031086;28;20932;-50
2023/05/08 08:55:15;;;;;;;9.37;8.40;;;18.60;1.00;;;;;;5035130;28;20210;-49
2023/05/08 08:58:06;;;;;;;9.63;8.63;;;19.10;1.00;;;;;;5034491;28;20449;-49
2023/05/08 09:00:35;;;;;;;10.00;8.90;;;19.80;1.00;;;;;;5015845;28;20422;-51
2023/05/08 09:03:01;;;;;;;11.00;9.13;;;19.80;1.00;;;;;;5018310;28;20437;-49
2023/05/08 09:05:26;;;;;;;9.50;8.03;;;19.20;1.00;;;;;;5032254;28;20491;-49
2023/05/08 09:07:56;;;;;;;10.10;9.10;;;19.20;1.00;;;;;;5033180;28;20182;-52
2023/05/08 09:10:23;;;;;;;9.70;8.80;;;18.90;1.00;;;;;;5031365;28;20223;-50
2023/05/08 09:12:49;;;;;;;11.93;9.27;;;18.70;1.00;;;;;;5035669;28;20482;-49
2023/05/08 09:15:15;;;;;;;11.07;9.30;;;18.20;1.00;;;;;;5035902;28;20909;-49
2023/05/08 09:17:41;;;;;;;10.73;9.67;;;17.60;1.00;;;;;;5035606;28;20269;-49
2023/05/08 09:20:08;;;;;;;9.60;8.70;;;17.10;1.00;;;;;;5035496;28;20499;-49
2023/05/08 09:22:35;;;;;;;13.60;10.07;;;16.70;1.00;;;;;;5035281;28;20185;-47
2023/05/08 09:25:02;;;;;;;12.43;9.67;;;16.30;1.00;;;;;;5035326;28;20460;-46
2023/05/08 09:27:30;;;;;;;12.40;9.73;;;16.10;1.00;;;;;;5035846;28;20421;-49
2023/05/08 09:30:00;;;;;;;11.23;8.90;;;16.20;1.00;;;;;;5035379;28;20769;-47
2023/05/08 09:32:30;;;;;;;10.47;9.43;;;16.70;1.00;;;;;;5035427;28;20553;-47
2023/05/08 09:34:56;;;;;;;13.20;9.37;;;17.20;1.00;;;;;;5035285;28;20921;-48
2023/05/08 09:37:22;;;;;;;12.70;9.13;;;17.30;1.00;;;;;;5034994;28;20424;-48
2023/05/08 09:39:48;;;;;;;10.53;9.53;;;17.20;1.00;;;;;;5035131;28;20414;-48
2023/05/08 09:42:14;;;;;;;10.77;9.00;;;16.90;1.00;;;;;;5035235;28;20200;-48
2023/05/08 09:45:00;;;;;;;10.97;8.80;;;16.90;1.00;;;;;;5035117;28;20417;-48
2023/05/08 09:47:26;;;;;;;13.10;9.67;;;17.80;1.00;;;;;;5014970;28;20632;-50
2023/05/08 09:50:03;;;;;;;10.23;9.13;;;18.90;1.00;;;;;;5018778;28;20484;-50
2023/05/08 09:52:31;;;;;;;10.33;8.67;;;19.60;1.00;;;;;;5036446;28;20225;-50
2023/05/08 09:55:06;;;;;;;8.83;7.93;;;20.00;1.00;;;;;;5034496;28;21067;-50
2023/05/08 09:57:35;;;;;;;8.93;8.03;;;20.30;1.00;;;;;;5033880;28;20436;-52
2023/05/08 10:00:05;;;;;;;9.10;8.20;;;20.60;1.00;;;;;;5034686;28;20507;-52
2023/05/08 10:02:31;;;;;;;11.13;8.13;;;20.70;1.00;;;;;;5034045;28;20495;-50
2023/05/08 10:04:57;;;;;;;10.50;7.57;;;20.30;1.00;;;;;;5034723;28;20831;-50
2023/05/08 10:07:36;;;;;;;12.27;7.50;;;19.50;1.00;;;;;;5034841;28;20500;-50
2023/05/08 10:10:04;;;;;;;13.07;7.70;;;18.90;1.00;;;;;;5034653;28;20239;-50
2023/05/08 10:12:30;;;;;;;8.67;7.80;;;18.40;1.00;;;;;;5033837;28;20473;-49
2023/05/08 10:14:56;;;;;;;7.93;7.17;;;18.10;1.00;;;;;;5033713;28;20429;-51
2023/05/08 10:17:41;;;;;;;8.10;7.13;;;18.80;1.00;;;;;;5033849;28;20331;-51
2023/05/08 10:20:08;;;;;;;8.57;6.87;;;19.40;1.00;;;;;;5033599;28;20426;-50
2023/05/08 10:22:36;;;;;;;8.53;6.93;;;20.30;1.00;;;;;;5035676;28;21008;-51
2023/05/08 10:25:03;;;;;;;7.03;6.43;;;20.70;1.00;;;;;;5032816;28;20560;-50
2023/05/08 10:27:52;;;;;;;7.47;6.67;;;21.40;1.00;;;;;;5033937;28;20477;-50
2023/05/08 10:30:23;;;;;;;8.17;7.00;;;21.80;1.00;;;;;;5032794;28;20488;-50
2023/05/08 10:32:53;;;;;;;6.60;5.97;;;21.70;1.00;;;;;;5033281;28;20622;-50
2023/05/08 10:35:20;;;;;;;8.63;6.57;;;22.40;1.00;;;;;;5026905;28;20450;-50
2023/05/08 10:37:47;;;;;;;6.87;5.90;;;22.70;1.00;;;;;;5033406;28;20442;-51
2023/05/08 10:40:14;;;;;;;6.60;6.00;;;23.10;99.90;;;;;;5035313;28;20443;-51
2023/05/08 10:42:41;;;;;;;7.73;5.50;;;23.70;99.90;;;;;;5025129;28;20448;-50
2023/05/08 10:45:08;;;;;;;6.53;5.93;;;24.40;99.90;;;;;;5024657;28;20456;-50
2023/05/08 10:47:52;;;;;;;6.60;5.80;;;24.70;99.90;;;;;;5032200;28;20468;-50
2023/05/08 10:50:56;;;;;;;8.23;6.30;;;24.70;99.90;;;;;;5031883;28;20484;-50
2023/05/08 10:53:47;;;;;;;6.93;5.80;;;24.40;99.90;;;;;;5023926;28;20780;-48
2023/05/08 10:56:13;;;;;;;7.10;5.80;;;24.40;99.90;;;;;;5032453;28;20932;-50
2023/05/08 10:58:39;;;;;;;6.43;5.83;;;24.50;99.90;;;;;;5037511;28;20434;-50
2023/05/08 11:01:07;;;;;;;8.50;6.07;;;24.20;99.90;;;;;;5046963;28;20194;-50
2023/05/08 11:03:40;;;;;;;9.70;5.50;;;23.80;99.90;;;;;;5033897;28;20643;-50
2023/05/08 11:06:05;;;;;;;7.47;5.67;;;24.30;99.90;;;;;;5033702;28;20445;-50
2023/05/08 11:08:31;;;;;;;6.40;5.30;;;24.60;99.90;;;;;;5033100;28;20984;-50
2023/05/08 11:11:00;;;;;;;7.33;5.30;;;24.40;99.90;;;;;;5033659;28;20256;-50
2023/05/08 11:13:38;;;;;;;6.30;5.17;;;24.40;99.90;;;;;;5033499;28;20583;-50
2023/05/08 11:16:09;;;;;;;5.60;5.10;;;24.90;99.90;;;;;;5031997;28;21004;-51
2023/05/08 11:18:35;;;;;;;6.90;5.40;;;24.50;99.90;;;;;;5036494;28;20436;-48
2023/05/08 11:21:04;;;;;;;5.60;4.90;;;24.70;99.90;;;;;;5053350;28;20427;-48
2023/05/08 11:23:32;;;;;;;7.35;4.35;;;25.30;99.90;;;;;;5036022;28;20513;-48
2023/05/08 11:26:02;;;;;;;5.50;4.60;;;25.50;99.90;;;;;;5036719;28;20703;-49
2023/05/08 11:28:38;;;;;;;6.13;4.70;;;25.50;99.90;;;;;;5034554;28;20548;-48
2023/05/08 11:31:04;;;;;;;5.13;4.63;;;25.60;99.90;;;;;;5050100;28;20470;-49
2023/05/08 11:33:37;;;;;;;6.73;4.87;;;25.40;99.90;;;;;;5036454;28;20491;-49
2023/05/08 11:36:21;;;;;;;4.40;4.10;;;25.10;99.90;;;;;;5037446;28;20517;-49
2023/05/08 11:39:08;;;;;;;7.43;4.47;;;25.10;99.90;;;;;;5039202;28;20441;-49
2023/05/08 11:41:34;;;;;;;9.47;4.17;;;25.30;99.90;;;;;;5036335;28;20441;-50
2023/05/08 11:44:00;;;;;;;5.53;4.00;;;25.30;99.90;;;;;;5057739;28;20413;-50
2023/05/08 11:46:37;;;;;;;5.40;4.07;;;25.60;99.90;;;;;;5051131;28;21072;-50
2023/05/08 11:49:03;;;;;;;4.20;3.80;;;25.90;99.90;;;;;;5037146;28;20241;-49
2023/05/08 11:51:32;;;;;;;4.80;4.03;;;26.40;99.90;;;;;;5035396;28;20853;-49
2023/05/08 11:54:01;;;;;;;3.73;3.43;;;26.10;99.90;;;;;;5037010;28;20277;-49
2023/05/08 11:56:27;;;;;;;5.53;4.00;;;26.20;99.90;;;;;;5037277;28;20422;-49
2023/05/08 11:59:12;;;;;;;5.23;4.73;;;26.70;99.90;;;;;;5037303;28;20430;-49
2023/05/08 12:01:37;;;;;;;4.70;4.30;;;26.10;99.90;;;;;;5043337;28;20521;-49
2023/05/08 12:04:08;;;;;;;4.07;3.77;;;25.70;99.90;;;;;;5024375;28;20537;-50
2023/05/08 12:06:37;;;;;;;4.70;4.30;;;25.40;99.90;;;;;;5051398;28;20249;-51
2023/05/08 12:09:08;;;;;;;4.57;4.13;;;25.50;99.90;;;;;;5044001;28;20430;-48
2023/05/08 12:11:34;;;;;;;5.30;3.97;;;25.60;99.90;;;;;;5034487;28;20477;-49
2023/05/08 12:14:00;;;;;;;4.63;4.23;;;25.30;99.90;;;;;;5034884;28;20567;-50
2023/05/08 12:16:26;;;;;;;5.03;3.77;;;25.10;99.90;;;;;;5035123;28;20236;-48
2023/05/08 12:18:52;;;;;;;4.87;3.90;;;24.90;99.90;;;;;;5036913;28;20815;-49
2023/05/08 12:21:20;;;;;;;3.97;3.57;;;24.80;99.90;;;;;;5036637;28;20662;-49
2023/05/08 12:23:45;;;;;;;8.90;3.03;;;24.60;99.90;;;;;;5036321;28;20925;-49
2023/05/08 12:26:11;;;;;;;5.60;3.60;;;24.70;99.90;;;;;;5036943;28;20422;-48
2023/05/08 12:28:37;;;;;;;3.47;3.17;;;24.60;99.90;;;;;;5036586;28;20621;-48
2023/05/08 12:31:03;;;;;;;4.87;3.77;;;24.40;99.90;;;;;;5036362;28;20219;-48
2023/05/08 12:33:29;;;;;;;4.30;3.90;;;24.40;99.90;;;;;;5036465;28;20429;-48
2023/05/08 12:35:56;;;;;;;7.03;3.50;;;24.40;99.90;;;;;;5034884;28;20432;-48
2023/05/08 12:38:26;;;;;;;5.80;3.07;;;24.20;99.90;;;;;;5036361;28;20426;-48
2023/05/08 12:40:54;;;;;;;3.03;2.83;;;24.00;99.90;;;;;;5036091;28;20413;-49
2023/05/08 12:43:20;;;;;;;3.30;3.00;;;24.40;99.90;;;;;;5036388;28;20422;-48
2023/05/08 12:45:45;;;;;;;4.20;3.40;;;24.50;99.90;;;;;;5036431;28;20920;-48
2023/05/08 12:48:14;;;;;;;5.60;3.40;;;24.10;99.90;;;;;;5035774;28;20516;-49
2023/05/08 12:50:42;;;;;;;5.70;3.43;;;24.00;99.90;;;;;;5035283;28;20238;-48
2023/05/08 12:53:10;;;;;;;6.57;3.47;;;24.50;99.90;;;;;;5035953;28;20771;-49
2023/05/08 12:55:37;;;;;;;3.50;3.10;;;25.30;99.90;;;;;;5035708;28;20438;-48
2023/05/08 12:58:11;;;;;;;4.40;3.60;;;25.90;99.90;;;;;;5035607;28;20424;-49
2023/05/08 13:00:42;;;;;;;3.97;3.57;;;26.40;99.90;;;;;;5035609;28;20424;-48
2023/05/08 13:03:10;;;;;;;17.50;3.13;;;26.40;99.90;;;;;;5035523;28;20426;-48
2023/05/08 13:05:39;;;;;;;4.73;3.33;;;26.70;99.90;;;;;;5035475;28;20418;-46